createdAt,value
2022-08-28T00:00:39.768Z,18.20
2022-08-28T00:05:41.752Z,17.77
2022-08-28T00:10:43.528Z,11.63
2022-08-28T00:15:45.560Z,15.93
2022-08-28T00:20:47.663Z,17.43
2022-08-28T00:25:49.370Z,16.83
2022-08-28T00:30:52.549Z,19.87
2022-08-28T00:35:54.842Z,19.93
2022-08-28T00:40:59.890Z,21.63
2022-08-28T00:46:02.575Z,12.37
2022-08-28T00:51:23.220Z,17.00
2022-08-28T00:56:24.888Z,18.90
2022-08-28T01:01:26.558Z,15.70
2022-08-28T01:06:28.252Z,20.03
2022-08-28T01:11:29.917Z,21.30
2022-08-28T01:16:33.745Z,22.73
2022-08-28T01:21:49.437Z,21.63
2022-08-28T01:26:51.123Z,29.73
2022-08-28T01:31:52.791Z,22.67
2022-08-28T01:36:54.468Z,19.87
2022-08-28T01:41:56.234Z,20.17
2022-08-28T01:46:58.548Z,16.20
2022-08-28T01:52:00.672Z,32.27
2022-08-28T01:57:05.136Z,19.70
2022-08-28T02:02:06.894Z,16.00
2022-08-28T02:07:08.604Z,19.90
2022-08-28T02:12:10.358Z,24.03
2022-08-28T02:17:12.831Z,21.67
2022-08-28T02:22:14.520Z,30.47
2022-08-28T02:27:16.219Z,23.50
2022-08-28T02:32:18.535Z,23.33
2022-08-28T02:37:21.470Z,22.67
2022-08-28T02:42:23.160Z,28.13
2022-08-28T02:47:24.813Z,21.53
2022-08-28T02:52:26.972Z,20.70
2022-08-28T02:57:29.909Z,27.27
2022-08-28T03:02:31.804Z,24.30
2022-08-28T03:07:33.554Z,21.20
2022-08-28T03:12:35.481Z,22.43
2022-08-28T03:17:37.146Z,22.23
2022-08-28T03:22:57.261Z,24.70
2022-08-28T03:27:58.952Z,23.33
2022-08-28T03:33:01.128Z,30.33
2022-08-28T03:38:03.127Z,21.17
2022-08-28T03:43:04.818Z,25.03
2022-08-28T03:48:08.885Z,24.10
2022-08-28T03:53:11.068Z,25.77
2022-08-28T03:58:18.800Z,26.00
2022-08-28T04:03:21.450Z,20.07
2022-08-28T04:08:23.444Z,23.53
2022-08-28T04:13:25.187Z,28.47
2022-08-28T04:18:27.516Z,18.07
2022-08-28T04:23:29.719Z,21.10
2022-08-28T04:28:32.580Z,26.07
2022-08-28T04:33:34.344Z,24.17
2022-08-28T04:38:39.276Z,23.00
2022-08-28T04:43:44.774Z,22.50
2022-08-28T04:48:46.481Z,21.87
2022-08-28T04:53:48.157Z,21.93
2022-08-28T04:58:49.863Z,35.70
2022-08-28T05:03:57.711Z,24.50
2022-08-28T05:09:00.642Z,22.63
2022-08-28T05:14:04.433Z,31.50
2022-08-28T05:19:06.356Z,14.23
2022-08-28T05:24:08.791Z,21.20
2022-08-28T05:29:10.540Z,26.37
2022-08-28T05:34:12.208Z,29.43
2022-08-28T05:39:13.887Z,29.80
2022-08-28T05:44:16.350Z,19.70
2022-08-28T05:49:18.946Z,26.97
2022-08-28T05:54:20.612Z,30.70
2022-08-28T05:59:22.285Z,29.67
2022-08-28T06:04:26.657Z,22.40
2022-08-28T06:09:29.921Z,23.17
2022-08-28T06:14:31.928Z,19.63
2022-08-28T06:19:37.199Z,21.53
2022-08-28T06:24:41.109Z,20.50
2022-08-28T06:29:44.617Z,21.63
2022-08-28T06:34:46.276Z,33.00
2022-08-28T06:39:47.940Z,22.73
2022-08-28T06:44:49.613Z,19.00
2022-08-28T06:49:51.309Z,16.37
2022-08-28T06:54:55.444Z,19.20
2022-08-28T06:59:57.868Z,16.03
2022-08-28T07:05:00.387Z,21.80
2022-08-28T07:10:02.066Z,19.10
2022-08-28T07:15:04.884Z,14.03
2022-08-28T07:20:07.246Z,19.03
2022-08-28T07:25:09.341Z,17.70
2022-08-28T07:30:13.108Z,20.03
2022-08-28T07:35:16.157Z,19.93
2022-08-28T07:40:20.109Z,19.80
2022-08-28T07:45:21.903Z,19.63
2022-08-28T07:50:23.614Z,19.17
2022-08-28T07:55:27.544Z,15.23
2022-08-28T08:00:30.142Z,16.80
2022-08-28T08:05:31.821Z,18.17
2022-08-28T08:10:34.283Z,14.73
2022-08-28T08:15:36.130Z,12.53
2022-08-28T08:20:38.417Z,24.40
2022-08-28T08:25:40.132Z,12.90
2022-08-28T08:30:41.823Z,19.20
2022-08-28T08:35:43.552Z,16.57
2022-08-28T08:40:45.531Z,20.90
2022-08-28T08:45:47.283Z,17.67
2022-08-28T08:50:48.961Z,14.50
2022-08-28T08:55:52.140Z,10.80
2022-08-28T09:00:58.661Z,12.73
2022-08-28T09:06:02.256Z,14.00
2022-08-28T09:11:19.677Z,12.50
2022-08-28T09:16:28.892Z,22.53
2022-08-28T09:21:35.163Z,9.57
2022-08-28T09:26:36.854Z,13.80
2022-08-28T09:31:39.238Z,13.43
2022-08-28T09:36:40.908Z,13.23
2022-08-28T09:42:32.670Z,10.70
2022-08-28T09:47:56.785Z,10.47
2022-08-28T09:53:09.086Z,13.90
2022-08-28T09:58:10.761Z,11.40
2022-08-28T10:03:31.435Z,11.47
2022-08-28T10:08:50.580Z,9.77
2022-08-28T10:14:28.622Z,11.73
2022-08-28T10:19:59.468Z,12.40
2022-08-28T10:25:28.902Z,15.70
2022-08-28T10:30:30.825Z,13.13
2022-08-28T10:35:52.092Z,9.57
2022-08-28T10:41:03.329Z,11.17
2022-08-28T10:46:08.674Z,11.33
2022-08-28T10:51:35.415Z,11.20
2022-08-28T10:56:56.671Z,14.27
2022-08-28T11:01:58.563Z,8.67
2022-08-28T11:07:03.535Z,11.63
2022-08-28T11:12:07.456Z,17.20
2022-08-28T11:17:33.438Z,9.70
2022-08-28T11:22:55.255Z,6.17
2022-08-28T11:28:36.897Z,11.23
2022-08-28T11:33:40.705Z,10.40
2022-08-28T11:38:42.224Z,11.30
2022-08-28T11:43:44.927Z,7.73
2022-08-28T11:48:51.689Z,15.50
2022-08-28T11:54:13.609Z,9.60
2022-08-28T11:59:35.618Z,8.47
2022-08-28T12:04:41.761Z,13.30
2022-08-28T12:09:45.144Z,6.40
2022-08-28T12:14:46.641Z,6.43
2022-08-28T12:20:10.778Z,11.03
2022-08-28T12:25:24.512Z,13.30
2022-08-28T12:30:44.242Z,13.10
2022-08-28T12:35:46.105Z,10.13
2022-08-28T12:40:53.417Z,9.93
2022-08-28T12:45:56.333Z,10.97
2022-08-28T12:51:05.805Z,9.20
2022-08-28T12:56:11.491Z,9.10
2022-08-28T13:01:32.505Z,10.67
2022-08-28T13:06:36.530Z,12.10
2022-08-28T13:11:38.656Z,12.73
2022-08-28T13:16:42.144Z,8.20
2022-08-28T13:21:46.548Z,8.73
2022-08-28T13:26:49.330Z,7.13
2022-08-28T13:32:00.760Z,10.33
2022-08-28T13:37:20.245Z,6.60
2022-08-28T13:42:22.547Z,10.50
2022-08-28T13:47:25.298Z,9.17
2022-08-28T13:52:27.164Z,7.63
2022-08-28T13:57:28.940Z,7.07
2022-08-28T14:02:48.934Z,11.70
2022-08-28T14:07:51.004Z,5.23
2022-08-28T14:12:52.703Z,5.67
2022-08-28T14:17:54.405Z,7.90
2022-08-28T14:22:56.127Z,11.10
2022-08-28T14:27:57.856Z,10.93
2022-08-28T14:32:59.538Z,4.70
2022-08-28T14:38:02.414Z,15.10
2022-08-28T14:43:05.496Z,10.77
2022-08-28T14:48:07.250Z,9.20
2022-08-28T14:53:09.670Z,10.43
2022-08-28T14:58:11.616Z,14.17
2022-08-28T15:03:13.762Z,8.50
2022-08-28T15:08:16.241Z,8.63
2022-08-28T15:13:17.909Z,10.30
2022-08-28T15:18:23.827Z,8.07
2022-08-28T15:23:25.516Z,8.60
2022-08-28T15:28:27.185Z,10.30
2022-08-28T15:33:28.840Z,6.77
2022-08-28T15:38:53.334Z,6.30
2022-08-28T15:44:00.306Z,17.20
2022-08-28T15:49:03.916Z,8.47
2022-08-28T15:54:10.337Z,10.60
2022-08-28T15:59:12.214Z,10.97
2022-08-28T16:04:15.008Z,9.40
2022-08-28T16:09:16.674Z,11.13
2022-08-28T16:14:21.034Z,7.67
2022-08-28T16:19:22.873Z,9.90
2022-08-28T16:24:24.542Z,8.17
2022-08-28T16:29:26.310Z,8.33
2022-08-28T16:34:31.351Z,7.90
2022-08-28T16:39:33.336Z,12.73
2022-08-28T16:44:35.183Z,11.43
2022-08-28T16:49:36.849Z,10.13
2022-08-28T16:54:38.537Z,13.00
2022-08-28T16:59:52.977Z,11.60
2022-08-28T17:04:55.299Z,8.87
2022-08-28T17:09:56.968Z,10.80
2022-08-28T17:14:58.616Z,8.47
2022-08-28T17:20:00.288Z,21.63
2022-08-28T17:25:07.652Z,11.00
2022-08-28T17:30:10.957Z,9.00
2022-08-28T17:35:12.721Z,10.57
2022-08-28T17:40:15.697Z,11.07
2022-08-28T17:45:17.473Z,8.80
2022-08-28T17:50:19.251Z,11.20
2022-08-28T17:55:21.080Z,8.30
2022-08-28T18:00:22.972Z,14.53
2022-08-28T18:05:24.740Z,13.57
2022-08-28T18:10:27.633Z,13.33
2022-08-28T18:15:29.328Z,13.00
2022-08-28T18:20:31.026Z,15.10
2022-08-28T18:25:41.693Z,12.60
2022-08-28T18:30:46.030Z,15.50
2022-08-28T18:35:49.411Z,18.80
2022-08-28T18:40:53.427Z,15.90
2022-08-28T18:45:55.508Z,17.40
2022-08-28T18:50:57.437Z,11.80
2022-08-28T18:55:59.139Z,17.27
2022-08-28T19:01:04.423Z,18.30
2022-08-28T19:06:06.507Z,17.27
2022-08-28T19:11:09.488Z,10.70
2022-08-28T19:16:16.998Z,11.97
2022-08-28T19:21:19.804Z,12.93
2022-08-28T19:26:21.527Z,17.17
2022-08-28T19:31:24.305Z,26.90
2022-08-28T19:36:27.423Z,17.73
2022-08-28T19:41:29.817Z,24.20
2022-08-28T19:46:31.635Z,14.00
2022-08-28T19:51:34.649Z,12.00
2022-08-28T19:56:37.281Z,11.63
2022-08-28T20:01:41.433Z,11.33
2022-08-28T20:06:44.050Z,11.40
2022-08-28T20:11:46.879Z,16.90
2022-08-28T20:16:50.775Z,12.33
2022-08-28T20:21:52.608Z,14.07
2022-08-28T20:26:54.312Z,12.70
2022-08-28T20:31:55.968Z,11.30
2022-08-28T20:36:57.632Z,11.37
2022-08-28T20:41:59.319Z,17.97
2022-08-28T20:47:01.315Z,13.73
2022-08-28T20:52:03.108Z,13.73
2022-08-28T20:57:07.786Z,14.03
2022-08-28T21:02:11.599Z,14.03
2022-08-28T21:07:14.173Z,13.33
2022-08-28T21:12:16.589Z,13.50
2022-08-28T21:17:28.712Z,16.60
2022-08-28T21:22:32.939Z,11.63
2022-08-28T21:27:36.444Z,11.00
2022-08-28T21:32:38.149Z,15.10
2022-08-28T21:37:40.890Z,17.67
2022-08-28T21:42:42.657Z,14.10
2022-08-28T21:47:44.386Z,14.40
2022-08-28T21:52:46.064Z,13.37
2022-08-28T21:57:47.721Z,14.43
2022-08-28T22:02:49.963Z,13.30
2022-08-28T22:07:51.902Z,17.10
2022-08-28T22:12:53.571Z,16.77
2022-08-28T22:17:55.241Z,16.50
2022-08-28T22:23:11.750Z,27.63
2022-08-28T22:28:14.239Z,16.70
2022-08-28T22:33:16.044Z,16.13
2022-08-28T22:38:18.536Z,14.30
2022-08-28T22:43:20.350Z,12.30
2022-08-28T22:48:22.006Z,16.60
2022-08-28T22:53:23.662Z,12.93
2022-08-28T22:58:25.359Z,9.83
2022-08-28T23:03:27.252Z,17.20
2022-08-28T23:08:33.733Z,11.80
2022-08-28T23:13:35.763Z,12.57
2022-08-28T23:19:03.969Z,18.03
2022-08-28T23:23:59.326Z,14.40
2022-08-28T23:29:01.030Z,15.60
2022-08-28T23:34:02.959Z,16.43
2022-08-28T23:39:06.632Z,11.03
2022-08-28T23:44:09.173Z,16.53
2022-08-28T23:49:11.506Z,13.03
2022-08-28T23:54:13.172Z,12.40
2022-08-28T23:59:14.827Z,12.73
